createdAt,value
2017-10-18T00:01:00.713Z,67.50
2017-10-18T00:03:28.223Z,67.50
2017-10-18T00:05:55.684Z,67.60
2017-10-18T00:08:23.264Z,67.60
2017-10-18T00:10:50.743Z,68.40
2017-10-18T00:13:18.317Z,67.60
2017-10-18T00:15:45.895Z,67.70
2017-10-18T00:18:13.378Z,67.70
2017-10-18T00:20:40.834Z,67.70
2017-10-18T00:23:09.147Z,67.40
2017-10-18T00:25:37.373Z,67.40
2017-10-18T00:28:04.907Z,67.40
2017-10-18T00:30:32.446Z,67.10
2017-10-18T00:32:59.898Z,67.40
2017-10-18T00:35:27.441Z,67.40
2017-10-18T00:37:55.059Z,67.40
2017-10-18T00:40:22.532Z,67.40
2017-10-18T00:42:49.988Z,67.20
2017-10-18T00:45:17.545Z,67.30
2017-10-18T00:47:45.765Z,66.80
2017-10-18T00:50:13.221Z,67.50
2017-10-18T00:52:41.526Z,67.10
2017-10-18T00:55:09.766Z,66.80
2017-10-18T00:57:37.222Z,66.80
2017-10-18T01:00:05.596Z,67.10
2017-10-18T01:02:33.835Z,67.00
2017-10-18T01:05:01.328Z,67.00
2017-10-18T01:07:28.880Z,67.00
2017-10-18T01:09:57.116Z,67.00
2017-10-18T01:12:24.652Z,67.00
2017-10-18T01:14:52.229Z,67.20
2017-10-18T01:17:19.704Z,67.20
2017-10-18T01:19:47.173Z,67.20
2017-10-18T01:22:14.737Z,67.40
2017-10-18T01:24:42.207Z,67.50
2017-10-18T01:27:09.670Z,67.50
2017-10-18T01:29:37.988Z,67.80
2017-10-18T01:32:06.219Z,67.80
2017-10-18T01:34:33.691Z,67.80
2017-10-18T01:37:01.241Z,68.10
2017-10-18T01:39:28.697Z,68.20
2017-10-18T01:41:56.166Z,68.20
2017-10-18T01:44:23.726Z,68.60
2017-10-18T01:46:51.972Z,68.80
2017-10-18T01:49:19.459Z,68.80
2017-10-18T01:51:47.575Z,69.00
2017-10-18T01:54:15.046Z,69.50
2017-10-18T01:56:42.507Z,69.50
2017-10-18T01:59:10.073Z,69.40
2017-10-18T02:01:38.325Z,69.50
2017-10-18T02:04:05.853Z,69.70
2017-10-18T02:06:33.376Z,69.60
2017-10-18T02:09:00.846Z,69.60
2017-10-18T02:11:28.368Z,69.60
2017-10-18T02:13:55.829Z,69.60
2017-10-18T02:16:23.383Z,69.80
2017-10-18T02:18:50.863Z,69.80
2017-10-18T02:21:18.373Z,69.80
2017-10-18T02:23:45.921Z,70.00
2017-10-18T02:26:13.383Z,70.10
2017-10-18T02:28:40.850Z,70.10
2017-10-18T02:31:09.162Z,70.40
2017-10-18T02:33:37.382Z,70.40
2017-10-18T02:36:04.843Z,70.30
2017-10-18T02:38:33.197Z,70.40
2017-10-18T02:41:00.690Z,70.40
2017-10-18T02:43:28.163Z,70.40
2017-10-18T02:45:55.712Z,70.50
2017-10-18T02:48:23.181Z,70.50
2017-10-18T02:50:50.645Z,70.50
2017-10-18T02:53:18.218Z,70.80
2017-10-18T02:55:45.675Z,70.60
2017-10-18T02:58:13.147Z,70.60
2017-10-18T03:00:40.700Z,70.60
2017-10-18T03:03:08.948Z,70.60
2017-10-18T03:05:36.423Z,70.70
2017-10-18T03:08:04.747Z,70.80
2017-10-18T03:10:32.209Z,70.80
2017-10-18T03:12:59.672Z,70.80
2017-10-18T03:15:27.965Z,70.80
2017-10-18T03:17:55.431Z,70.60
2017-10-18T03:20:22.994Z,70.90
2017-10-18T03:22:50.468Z,70.90
2017-10-18T03:25:17.952Z,71.10
2017-10-18T03:27:46.289Z,71.10
2017-10-18T03:30:13.757Z,71.20
2017-10-18T03:32:41.235Z,71.00
2017-10-18T03:35:08.760Z,71.00
2017-10-18T03:37:36.314Z,70.80
2017-10-18T03:40:03.847Z,70.90
2017-10-18T03:42:32.099Z,71.10
2017-10-18T03:44:59.634Z,71.10
2017-10-18T03:47:27.929Z,71.40
2017-10-18T03:49:55.394Z,71.40
2017-10-18T03:52:22.966Z,71.30
2017-10-18T03:54:50.437Z,71.50
2017-10-18T03:57:17.944Z,71.60
2017-10-18T03:59:45.524Z,71.50
2017-10-18T04:02:12.984Z,71.40
2017-10-18T04:04:40.485Z,71.40
2017-10-18T04:07:08.136Z,71.40
2017-10-18T04:09:35.646Z,71.40
2017-10-18T04:12:03.204Z,71.20
2017-10-18T04:14:30.696Z,71.30
2017-10-18T04:16:58.163Z,71.20
2017-10-18T04:19:26.501Z,71.20
2017-10-18T04:21:54.007Z,71.30
2017-10-18T04:24:21.487Z,71.10
2017-10-18T04:26:49.006Z,71.10
2017-10-18T04:29:18.014Z,71.10
2017-10-18T04:31:46.398Z,71.00
2017-10-18T04:34:13.872Z,71.00
2017-10-18T04:36:42.102Z,71.00
2017-10-18T04:39:09.677Z,70.80
2017-10-18T04:41:37.157Z,70.80
2017-10-18T04:44:04.616Z,70.70
2017-10-18T04:46:32.205Z,70.70
2017-10-18T04:48:59.693Z,70.70
2017-10-18T04:51:27.922Z,70.40
2017-10-18T04:53:56.208Z,70.20
2017-10-18T04:56:24.439Z,69.80
2017-10-18T04:58:51.957Z,69.90
2017-10-18T05:01:19.502Z,69.70
2017-10-18T05:03:47.077Z,69.50
2017-10-18T05:06:15.304Z,69.80
2017-10-18T05:08:43.539Z,69.50
2017-10-18T05:11:11.045Z,69.60
2017-10-18T05:13:38.541Z,69.40
2017-10-18T05:16:06.017Z,69.60
2017-10-18T05:18:33.565Z,69.20
2017-10-18T05:21:01.018Z,68.90
2017-10-18T05:23:28.496Z,68.80
2017-10-18T05:25:56.830Z,68.50
2017-10-18T05:28:24.303Z,68.50
2017-10-18T05:30:51.788Z,68.50
2017-10-18T05:33:19.359Z,68.50
2017-10-18T05:35:46.867Z,68.40
2017-10-18T05:38:15.205Z,68.60
2017-10-18T05:40:42.699Z,68.50
2017-10-18T05:43:10.926Z,68.40
2017-10-18T05:45:39.229Z,68.00
2017-10-18T05:48:06.938Z,68.20
2017-10-18T05:50:34.418Z,67.90
2017-10-18T05:53:01.891Z,67.90
2017-10-18T05:55:29.432Z,67.90
2017-10-18T05:58:03.751Z,67.90
2017-10-18T06:00:31.301Z,67.80
2017-10-18T06:02:58.824Z,67.10
2017-10-18T06:05:26.407Z,67.00
2017-10-18T06:07:53.883Z,66.10
2017-10-18T06:10:21.390Z,66.10
2017-10-18T06:12:48.950Z,66.30
2017-10-18T06:15:16.447Z,65.30
2017-10-18T06:17:43.907Z,65.20
2017-10-18T06:20:11.447Z,64.80
2017-10-18T06:22:39.795Z,63.80
2017-10-18T06:25:07.304Z,63.80
2017-10-18T06:27:34.895Z,63.30
2017-10-18T06:30:02.382Z,63.20
2017-10-18T06:32:29.856Z,63.10
2017-10-18T06:34:57.430Z,62.70
2017-10-18T06:37:24.896Z,62.40
2017-10-18T06:39:52.379Z,62.00
2017-10-18T06:42:20.051Z,61.40
2017-10-18T06:44:47.540Z,60.80
2017-10-18T06:47:15.971Z,59.70
2017-10-18T06:49:43.585Z,59.70
2017-10-18T06:52:11.051Z,59.40
2017-10-18T06:54:39.310Z,59.10
2017-10-18T06:57:06.998Z,59.10
2017-10-18T06:59:34.473Z,59.10
2017-10-18T07:02:01.942Z,58.50
2017-10-18T07:04:29.493Z,57.90
2017-10-18T07:06:57.834Z,56.80
2017-10-18T07:09:25.309Z,56.80
2017-10-18T07:11:52.889Z,56.00
2017-10-18T07:14:20.377Z,55.30
2017-10-18T07:16:48.074Z,55.10
2017-10-18T07:19:15.611Z,54.90
2017-10-18T07:21:43.088Z,54.80
2017-10-18T07:24:10.698Z,54.40
2017-10-18T07:26:38.962Z,54.30
2017-10-18T07:29:06.584Z,54.30
2017-10-18T07:31:34.059Z,54.10
2017-10-18T07:34:01.617Z,53.90
2017-10-18T07:36:29.097Z,54.10
2017-10-18T07:38:56.579Z,53.50
2017-10-18T07:41:24.166Z,53.60
2017-10-18T07:43:51.646Z,53.70
2017-10-18T07:46:19.137Z,53.20
2017-10-18T07:48:48.135Z,52.90
2017-10-18T07:51:15.664Z,52.70
2017-10-18T07:53:43.905Z,51.20
2017-10-18T07:56:11.470Z,51.10
2017-10-18T07:58:38.976Z,50.90
2017-10-18T08:01:06.709Z,50.90
2017-10-18T08:03:34.979Z,50.10
2017-10-18T08:06:02.615Z,50.10
2017-10-18T08:08:30.205Z,49.90
2017-10-18T08:10:57.765Z,49.50
2017-10-18T08:13:25.348Z,49.50
2017-10-18T08:15:53.780Z,48.80
2017-10-18T08:18:21.322Z,48.80
2017-10-18T08:20:48.793Z,48.70
2017-10-18T08:23:16.355Z,48.50
2017-10-18T08:25:44.716Z,47.80
2017-10-18T08:28:12.224Z,48.00
2017-10-18T08:30:39.804Z,48.10
2017-10-18T08:33:07.409Z,47.60
2017-10-18T08:35:34.900Z,47.20
2017-10-18T08:38:02.807Z,47.70
2017-10-18T08:40:30.413Z,47.00
2017-10-18T08:42:58.790Z,46.60
2017-10-18T08:45:27.204Z,46.30
2017-10-18T08:47:54.684Z,46.30
2017-10-18T08:50:22.163Z,45.70
2017-10-18T08:52:49.740Z,45.20
2017-10-18T08:55:17.223Z,45.10
2017-10-18T08:57:44.713Z,45.10
2017-10-18T09:00:12.696Z,45.30
2017-10-18T09:02:39.865Z,45.00
2017-10-18T09:05:07.383Z,45.40
2017-10-18T09:07:34.935Z,45.60
2017-10-18T09:10:03.183Z,46.10
2017-10-18T09:12:30.649Z,46.10
2017-10-18T09:14:58.226Z,45.90
2017-10-18T09:17:26.506Z,45.50
2017-10-18T09:19:54.025Z,45.50
2017-10-18T09:22:21.622Z,44.90
2017-10-18T09:24:49.087Z,44.60
2017-10-18T09:27:16.563Z,43.70
2017-10-18T09:29:44.131Z,43.10
2017-10-18T09:32:11.606Z,42.70
2017-10-18T09:34:39.123Z,42.20
2017-10-18T09:37:06.724Z,42.60
2017-10-18T09:39:35.016Z,43.50
2017-10-18T09:42:02.496Z,43.50
2017-10-18T09:44:30.078Z,43.40
2017-10-18T09:46:57.635Z,43.50
2017-10-18T09:49:25.961Z,43.80
2017-10-18T09:51:54.205Z,43.80
2017-10-18T09:54:21.731Z,43.90
2017-10-18T09:56:49.305Z,44.30
2017-10-18T09:59:16.787Z,44.00
2017-10-18T10:01:44.250Z,43.90
2017-10-18T10:04:11.830Z,43.70
2017-10-18T10:06:40.075Z,43.20
2017-10-18T10:09:07.605Z,43.20
2017-10-18T10:11:36.047Z,43.60
2017-10-18T10:14:03.512Z,43.50
2017-10-18T10:16:31.025Z,43.80
2017-10-18T10:18:58.598Z,44.00
2017-10-18T10:21:26.081Z,43.50
2017-10-18T10:23:53.635Z,43.00
2017-10-18T10:26:21.255Z,42.20
2017-10-18T10:28:48.714Z,42.20
2017-10-18T10:31:16.952Z,41.60
2017-10-18T10:33:44.548Z,41.70
2017-10-18T10:36:12.123Z,41.40
2017-10-18T10:38:39.621Z,40.40
2017-10-18T10:41:07.310Z,40.50
2017-10-18T10:43:34.827Z,39.70
2017-10-18T10:46:03.109Z,36.70
2017-10-18T10:48:31.489Z,34.60
2017-10-18T10:50:59.049Z,34.60
2017-10-18T10:53:26.523Z,32.80
2017-10-18T10:55:54.044Z,32.00
2017-10-18T10:58:21.534Z,30.90
2017-10-18T11:00:49.103Z,29.90
2017-10-18T11:03:16.931Z,28.90
2017-10-18T11:05:45.206Z,28.50
2017-10-18T11:08:12.761Z,28.60
2017-10-18T11:10:40.235Z,29.50
2017-10-18T11:13:08.591Z,32.50
2017-10-18T11:15:36.224Z,32.40
2017-10-18T11:18:04.535Z,35.50
2017-10-18T11:20:32.026Z,35.40
2017-10-18T11:22:59.590Z,35.80
2017-10-18T11:25:27.084Z,36.90
2017-10-18T11:27:55.333Z,38.80
2017-10-18T11:30:22.870Z,38.80
2017-10-18T11:32:50.333Z,39.60
2017-10-18T11:35:17.880Z,40.10
2017-10-18T11:37:45.359Z,41.10
2017-10-18T11:40:12.852Z,40.90
2017-10-18T11:42:40.527Z,40.60
2017-10-18T11:45:08.756Z,41.00
2017-10-18T11:47:36.279Z,41.00
2017-10-18T11:50:03.753Z,41.30
2017-10-18T11:52:31.389Z,41.90
2017-10-18T11:54:59.646Z,42.40
2017-10-18T11:57:27.155Z,42.40
2017-10-18T11:59:54.774Z,41.80
2017-10-18T12:02:22.253Z,41.30
2017-10-18T12:04:49.770Z,41.40
2017-10-18T12:07:17.308Z,41.70
2017-10-18T12:09:44.890Z,41.20
2017-10-18T12:12:13.122Z,41.80
2017-10-18T12:14:41.467Z,42.00
2017-10-18T12:17:09.005Z,42.10
2017-10-18T12:19:37.414Z,40.90
2017-10-18T12:22:04.888Z,40.90
2017-10-18T12:24:33.145Z,42.40
2017-10-18T12:27:00.724Z,42.10
2017-10-18T12:29:28.291Z,42.60
2017-10-18T12:31:56.514Z,43.80
2017-10-18T12:34:24.097Z,43.80
2017-10-18T12:36:51.565Z,44.50
2017-10-18T12:39:19.031Z,44.10
2017-10-18T12:41:46.611Z,44.00
2017-10-18T12:44:14.088Z,43.40
2017-10-18T12:46:41.555Z,43.80
2017-10-18T12:49:09.147Z,43.40
2017-10-18T12:51:37.380Z,43.50
2017-10-18T12:54:04.852Z,43.50
2017-10-18T12:56:32.632Z,43.80
2017-10-18T12:59:00.096Z,43.70
2017-10-18T13:01:28.527Z,42.30
2017-10-18T13:03:56.088Z,42.20
2017-10-18T13:06:24.323Z,41.10
2017-10-18T13:08:51.785Z,41.20
2017-10-18T13:11:19.379Z,40.90
2017-10-18T13:13:47.780Z,37.50
2017-10-18T13:16:16.015Z,40.40
2017-10-18T13:18:43.562Z,40.40
2017-10-18T13:21:11.799Z,41.90
2017-10-18T13:23:39.284Z,42.10
2017-10-18T13:26:06.894Z,42.50
2017-10-18T13:28:34.481Z,41.60
2017-10-18T13:31:01.994Z,41.60
2017-10-18T13:33:29.544Z,41.50
2017-10-18T13:35:57.033Z,41.10
2017-10-18T13:38:25.290Z,42.80
2017-10-18T13:40:53.622Z,42.80
2017-10-18T13:43:21.137Z,42.90
2017-10-18T13:45:48.612Z,43.40
2017-10-18T13:48:16.188Z,43.40
2017-10-18T13:50:44.549Z,43.50
2017-10-18T13:53:12.020Z,43.50
2017-10-18T13:55:39.605Z,42.50
2017-10-18T13:58:07.072Z,42.10
2017-10-18T14:00:35.097Z,43.20
2017-10-18T14:03:02.659Z,42.80
2017-10-18T14:05:30.138Z,42.50
2017-10-18T14:07:57.611Z,42.00
2017-10-18T14:10:25.201Z,41.40
2017-10-18T14:12:53.429Z,40.20
2017-10-18T14:15:21.013Z,40.10
2017-10-18T14:17:48.590Z,38.80
2017-10-18T14:20:16.108Z,39.10
2017-10-18T14:22:43.586Z,39.30
2017-10-18T14:25:11.184Z,41.30
2017-10-18T14:27:38.695Z,43.10
2017-10-18T14:30:06.176Z,44.60
2017-10-18T14:32:33.713Z,45.10
2017-10-18T14:35:01.283Z,45.80
2017-10-18T14:37:29.051Z,46.20
2017-10-18T14:39:59.478Z,46.30
2017-10-18T14:42:27.377Z,46.60
2017-10-18T14:44:56.436Z,46.60
2017-10-18T14:47:24.552Z,47.00
2017-10-18T14:49:54.216Z,47.40
2017-10-18T14:52:23.164Z,47.20
2017-10-18T14:54:51.185Z,47.20
2017-10-18T14:57:19.566Z,47.20
2017-10-18T14:59:48.216Z,46.60
2017-10-18T15:02:16.732Z,45.10
2017-10-18T15:04:44.384Z,45.70
2017-10-18T15:07:13.473Z,45.10
2017-10-18T15:09:41.735Z,45.60
2017-10-18T15:12:09.843Z,43.80
2017-10-18T15:14:37.970Z,43.60
2017-10-18T15:17:05.978Z,43.70
2017-10-18T15:19:35.030Z,43.90
2017-10-18T15:22:03.149Z,43.90
2017-10-18T15:24:31.248Z,44.40
2017-10-18T15:26:59.305Z,44.60
2017-10-18T15:29:28.365Z,45.30
2017-10-18T15:31:56.702Z,45.30
2017-10-18T15:34:24.825Z,45.70
2017-10-18T15:36:52.883Z,46.50
2017-10-18T15:39:21.055Z,46.80
2017-10-18T15:41:49.193Z,46.90
2017-10-18T15:44:17.140Z,47.70
2017-10-18T15:46:46.481Z,48.70
2017-10-18T15:49:15.110Z,48.80
2017-10-18T15:51:43.062Z,48.70
2017-10-18T15:54:11.097Z,48.90
2017-10-18T15:56:39.087Z,48.60
2017-10-18T15:59:07.223Z,48.60
2017-10-18T16:01:35.162Z,48.40
2017-10-18T16:04:03.377Z,48.80
2017-10-18T16:06:31.464Z,49.00
2017-10-18T16:08:59.397Z,48.80
2017-10-18T16:11:27.677Z,49.50
2017-10-18T16:13:55.454Z,49.50
2017-10-18T16:16:23.857Z,49.60
2017-10-18T16:18:52.148Z,49.70
2017-10-18T16:21:21.298Z,49.60
2017-10-18T16:23:50.376Z,49.50
2017-10-18T16:26:18.456Z,50.00
2017-10-18T16:28:46.388Z,50.20
2017-10-18T16:31:14.573Z,50.20
2017-10-18T16:33:43.591Z,50.70
2017-10-18T16:36:11.654Z,50.70
2017-10-18T16:38:40.028Z,51.00
2017-10-18T16:41:08.129Z,51.00
2017-10-18T16:43:36.433Z,51.20
2017-10-18T16:46:04.398Z,51.30
2017-10-18T16:48:33.012Z,51.50
2017-10-18T16:51:01.086Z,51.50
2017-10-18T16:53:29.036Z,51.50
2017-10-18T16:55:56.918Z,51.60
2017-10-18T16:58:25.119Z,51.60
2017-10-18T17:00:53.323Z,51.70
2017-10-18T17:03:22.025Z,52.10
2017-10-18T17:05:50.008Z,52.10
2017-10-18T17:08:18.025Z,52.50
2017-10-18T17:10:47.029Z,53.10
2017-10-18T17:13:14.790Z,53.10
2017-10-18T17:15:43.001Z,53.40
2017-10-18T17:18:11.136Z,53.90
2017-10-18T17:23:18.089Z,54.10
2017-10-18T17:25:46.941Z,54.70
2017-10-18T17:28:14.491Z,54.70
2017-10-18T17:30:43.077Z,54.70
2017-10-18T17:33:10.957Z,54.70
2017-10-18T17:35:38.637Z,54.80
2017-10-18T17:38:06.530Z,54.90
2017-10-18T17:40:34.161Z,55.20
2017-10-18T17:43:01.924Z,55.10
2017-10-18T17:45:29.844Z,55.40
2017-10-18T17:47:57.992Z,55.60
2017-10-18T17:50:26.333Z,56.00
2017-10-18T17:52:54.200Z,56.00
2017-10-18T17:55:22.854Z,56.20
2017-10-18T17:57:50.699Z,56.20
2017-10-18T18:00:19.539Z,56.70
2017-10-18T18:02:47.170Z,56.80
2017-10-18T18:05:14.850Z,56.90
2017-10-18T18:07:43.433Z,57.30
2017-10-18T18:10:12.559Z,57.80
2017-10-18T18:12:40.162Z,57.80
2017-10-18T18:15:07.987Z,58.00
2017-10-18T18:17:36.005Z,58.10
2017-10-18T18:20:03.681Z,58.30
2017-10-18T18:22:31.227Z,58.40
2017-10-18T18:24:58.894Z,58.60
2017-10-18T18:27:26.388Z,58.90
2017-10-18T18:29:54.040Z,59.00
2017-10-18T18:32:22.822Z,59.40
2017-10-18T18:34:50.331Z,59.40
2017-10-18T18:37:18.025Z,59.30
2017-10-18T18:39:45.556Z,59.80
2017-10-18T18:42:13.091Z,60.00
2017-10-18T18:44:40.658Z,60.00
2017-10-18T18:47:08.345Z,60.30
2017-10-18T18:49:36.052Z,60.50
2017-10-18T18:52:03.688Z,60.80
2017-10-18T18:54:31.247Z,61.00
2017-10-18T18:56:58.872Z,61.20
2017-10-18T18:59:26.437Z,61.40
2017-10-18T19:01:53.947Z,61.50
2017-10-18T19:04:23.378Z,61.80
2017-10-18T19:06:51.733Z,62.00
2017-10-18T19:09:19.315Z,62.00
2017-10-18T19:11:46.873Z,62.30
2017-10-18T19:14:14.435Z,62.50
2017-10-18T19:16:42.036Z,62.70
2017-10-18T19:19:09.569Z,62.70
2017-10-18T19:21:37.175Z,62.70
2017-10-18T19:24:05.540Z,63.30
2017-10-18T19:26:33.153Z,63.00
2017-10-18T19:29:00.928Z,63.10
2017-10-18T19:31:28.528Z,63.30
2017-10-18T19:33:56.076Z,63.30
2017-10-18T19:36:23.620Z,63.50
2017-10-18T19:38:51.156Z,63.50
2017-10-18T19:41:18.741Z,63.60
2017-10-18T19:43:46.292Z,63.70
2017-10-18T19:46:13.877Z,63.80
2017-10-18T19:48:41.383Z,63.90
2017-10-18T19:51:09.709Z,64.10
2017-10-18T19:53:37.261Z,64.00
2017-10-18T19:56:04.812Z,64.00
2017-10-18T19:58:32.313Z,64.20
2017-10-18T20:00:59.980Z,64.30
2017-10-18T20:03:27.536Z,64.20
2017-10-18T20:05:55.056Z,64.40
2017-10-18T20:08:22.543Z,64.90
2017-10-18T20:10:50.053Z,64.90
2017-10-18T20:13:17.644Z,65.00
2017-10-18T20:15:45.157Z,65.10
2017-10-18T20:18:13.250Z,65.30
2017-10-18T20:20:40.831Z,65.30
2017-10-18T20:23:08.487Z,65.50
2017-10-18T20:25:36.943Z,65.60
2017-10-18T20:28:04.557Z,65.60
2017-10-18T20:30:32.092Z,65.70
2017-10-18T20:32:59.597Z,65.90
2017-10-18T20:35:27.109Z,66.10
2017-10-18T20:37:54.677Z,66.00
2017-10-18T20:40:22.319Z,65.90
2017-10-18T20:42:50.605Z,66.00
2017-10-18T20:45:18.102Z,66.10
2017-10-18T20:47:46.438Z,66.30
2017-10-18T20:50:13.979Z,66.20
2017-10-18T20:52:41.509Z,66.30
2017-10-18T20:55:09.837Z,66.40
2017-10-18T20:57:37.350Z,66.50
2017-10-18T21:00:04.867Z,66.20
2017-10-18T21:02:32.371Z,66.30
2017-10-18T21:05:00.627Z,66.40
2017-10-18T21:07:28.206Z,66.50
2017-10-18T21:09:55.728Z,66.60
2017-10-18T21:12:23.281Z,66.20
2017-10-18T21:14:50.866Z,66.60
2017-10-18T21:17:18.366Z,66.60
2017-10-18T21:19:45.906Z,66.80
2017-10-18T21:22:14.160Z,66.80
2017-10-18T21:24:41.700Z,66.50
2017-10-18T21:27:09.184Z,66.80
2017-10-18T21:29:36.776Z,67.20
2017-10-18T21:32:04.281Z,67.30
2017-10-18T21:34:31.837Z,67.30
2017-10-18T21:36:59.371Z,67.30
2017-10-18T21:39:26.897Z,67.30
2017-10-18T21:41:54.392Z,68.10
2017-10-18T21:44:21.993Z,67.50
2017-10-18T21:46:49.581Z,67.60
2017-10-18T21:49:17.085Z,67.50
2017-10-18T21:51:44.586Z,67.50
2017-10-18T21:54:12.092Z,67.50
2017-10-18T21:56:39.640Z,67.40
2017-10-18T21:59:07.152Z,67.40
2017-10-18T22:01:34.682Z,67.40
2017-10-18T22:04:02.172Z,67.70
2017-10-18T22:06:29.821Z,67.70
2017-10-18T22:08:57.298Z,67.90
2017-10-18T22:11:25.561Z,67.90
2017-10-18T22:13:53.053Z,68.00
2017-10-18T22:16:20.755Z,68.10
2017-10-18T22:18:48.261Z,68.20
2017-10-18T22:23:40.989Z,68.40
2017-10-18T22:26:08.650Z,68.70
2017-10-18T22:28:36.977Z,69.00
2017-10-18T22:31:05.274Z,69.00
2017-10-18T22:33:33.557Z,69.00
2017-10-18T22:36:01.100Z,69.00
2017-10-18T22:38:28.752Z,69.10
2017-10-18T22:40:56.233Z,69.20
2017-10-18T22:43:24.595Z,69.30
2017-10-18T22:45:52.117Z,69.30
2017-10-18T22:48:20.397Z,69.40
2017-10-18T22:50:47.895Z,69.10
2017-10-18T22:53:16.160Z,69.60
2017-10-18T22:55:43.729Z,69.50
2017-10-18T22:58:11.249Z,69.60
2017-10-18T23:00:38.777Z,69.50
2017-10-18T23:03:06.333Z,69.50
2017-10-18T23:05:33.856Z,69.50
2017-10-18T23:08:01.351Z,69.30
2017-10-18T23:10:28.897Z,69.30
2017-10-18T23:12:56.406Z,69.20
2017-10-18T23:15:23.913Z,69.20
2017-10-18T23:17:51.458Z,69.20
2017-10-18T23:20:18.990Z,69.20
2017-10-18T23:22:46.482Z,68.90
2017-10-18T23:25:14.110Z,68.80
2017-10-18T23:27:41.643Z,68.80
2017-10-18T23:30:09.129Z,68.80
2017-10-18T23:32:37.480Z,69.10
2017-10-18T23:35:04.998Z,69.10
2017-10-18T23:37:32.548Z,68.90
2017-10-18T23:40:00.041Z,69.00
2017-10-18T23:42:27.600Z,68.90
2017-10-18T23:44:55.083Z,68.90
2017-10-18T23:47:22.611Z,69.10
2017-10-18T23:49:50.112Z,69.10
2017-10-18T23:55:22.023Z,70.20
2017-10-18T23:57:49.559Z,69.30
